createdAt,value
2018-03-11T00:01:35.097Z,27.17
2018-03-11T00:04:02.669Z,26.63
2018-03-11T00:06:30.222Z,27.23
2018-03-11T00:08:57.814Z,25.57
2018-03-11T00:11:25.798Z,25.65
2018-03-11T00:13:53.356Z,25.97
2018-03-11T00:16:21.147Z,23.90
2018-03-11T00:18:48.953Z,24.47
2018-03-11T00:21:16.539Z,26.50
2018-03-11T00:23:44.528Z,23.53
2018-03-11T00:26:12.608Z,24.80
2018-03-11T00:28:40.176Z,24.80
2018-03-11T00:31:07.756Z,27.87
2018-03-11T00:33:35.374Z,26.83
2018-03-11T00:36:03.109Z,27.53
2018-03-11T00:38:31.186Z,23.30
2018-03-11T00:40:58.846Z,25.73
2018-03-11T00:43:26.792Z,29.30
2018-03-11T00:45:54.362Z,25.10
2018-03-11T00:48:21.935Z,24.90
2018-03-11T00:50:49.678Z,22.85
2018-03-11T00:53:17.249Z,22.53
2018-03-11T00:55:44.785Z,23.55
2018-03-11T00:58:12.406Z,24.60
2018-03-11T01:00:39.959Z,24.70
2018-03-11T01:03:07.914Z,26.00
2018-03-11T01:05:35.871Z,21.20
2018-03-11T01:08:03.416Z,25.30
2018-03-11T01:10:31.049Z,22.60
2018-03-11T01:12:58.637Z,23.80
2018-03-11T01:15:26.293Z,27.93
2018-03-11T01:17:53.847Z,32.50
2018-03-11T01:20:21.442Z,27.48
2018-03-11T01:22:49.406Z,24.35
2018-03-11T01:25:16.994Z,27.58
2018-03-11T01:27:44.577Z,28.70
2018-03-11T01:30:12.106Z,32.97
2018-03-11T01:32:39.733Z,29.63
2018-03-11T01:35:07.336Z,26.83
2018-03-11T01:37:34.907Z,24.58
2018-03-11T01:40:02.463Z,27.60
2018-03-11T01:42:30.055Z,31.10
2018-03-11T01:44:57.594Z,29.95
2018-03-11T01:47:25.175Z,32.72
2018-03-11T01:49:52.750Z,29.90
2018-03-11T01:52:20.350Z,25.65
2018-03-11T01:54:48.290Z,22.75
2018-03-11T01:57:16.006Z,26.08
2018-03-11T01:59:43.567Z,27.37
2018-03-11T02:02:11.528Z,24.85
2018-03-11T02:04:39.149Z,26.20
2018-03-11T02:07:10.812Z,25.88
2018-03-11T02:09:40.452Z,32.42
2018-03-11T02:12:09.312Z,26.42
2018-03-11T02:14:36.934Z,26.17
2018-03-11T02:17:04.541Z,28.40
2018-03-11T02:19:32.725Z,27.42
2018-03-11T02:22:00.294Z,26.45
2018-03-11T02:24:27.924Z,27.25
2018-03-11T02:26:56.063Z,22.15
2018-03-11T02:29:23.813Z,21.77
2018-03-11T02:31:51.460Z,22.27
2018-03-11T02:34:19.097Z,25.35
2018-03-11T02:36:47.036Z,27.00
2018-03-11T02:39:14.585Z,24.80
2018-03-11T02:41:42.154Z,26.93
2018-03-11T02:44:09.774Z,22.50
2018-03-11T02:46:37.449Z,23.83
2018-03-11T02:49:05.011Z,24.67
2018-03-11T02:51:33.506Z,26.67
2018-03-11T02:54:01.199Z,26.00
2018-03-11T02:56:28.777Z,22.55
2018-03-11T02:58:57.682Z,22.93
2018-03-11T03:01:25.268Z,24.63
2018-03-11T03:03:53.299Z,24.80
2018-03-11T03:06:21.339Z,25.57
2018-03-11T03:08:48.913Z,23.33
2018-03-11T03:11:16.895Z,26.00
2018-03-11T03:13:44.449Z,25.03
2018-03-11T03:16:12.657Z,30.00
2018-03-11T03:18:40.250Z,24.60
2018-03-11T03:21:07.931Z,27.60
2018-03-11T03:23:35.490Z,34.03
2018-03-11T03:26:03.448Z,28.40
2018-03-11T03:28:31.021Z,27.97
2018-03-11T03:30:58.988Z,39.03
2018-03-11T03:33:26.541Z,35.07
2018-03-11T03:35:54.104Z,30.37
2018-03-11T03:38:22.070Z,32.80
2018-03-11T03:40:51.495Z,34.42
2018-03-11T03:43:19.430Z,39.17
2018-03-11T03:45:46.957Z,35.13
2018-03-11T03:48:14.677Z,37.87
2018-03-11T03:50:42.220Z,37.80
2018-03-11T03:53:09.795Z,35.58
2018-03-11T03:55:37.346Z,38.43
2018-03-11T03:58:04.917Z,39.80
2018-03-11T04:00:32.902Z,30.80
2018-03-11T04:03:00.885Z,33.10
2018-03-11T04:05:28.436Z,32.07
2018-03-11T04:07:56.387Z,30.50
2018-03-11T04:10:24.359Z,30.30
2018-03-11T04:12:52.366Z,31.37
2018-03-11T04:15:19.923Z,30.33
2018-03-11T04:17:47.469Z,25.98
2018-03-11T04:20:16.096Z,31.92
2018-03-11T04:22:43.665Z,26.73
2018-03-11T04:25:11.244Z,28.97
2018-03-11T04:27:39.231Z,30.90
2018-03-11T04:30:06.786Z,30.37
2018-03-11T04:32:34.354Z,35.90
2018-03-11T04:35:01.922Z,36.65
2018-03-11T04:37:29.486Z,36.38
2018-03-11T04:39:57.106Z,39.93
2018-03-11T04:42:25.182Z,42.97
2018-03-11T04:44:53.713Z,37.83
2018-03-11T04:47:21.549Z,37.22
2018-03-11T04:49:49.471Z,35.47
2018-03-11T04:52:17.071Z,26.30
2018-03-11T04:54:45.072Z,30.65
2018-03-11T04:57:12.657Z,27.00
2018-03-11T04:59:40.230Z,29.43
2018-03-11T05:02:07.806Z,24.87
2018-03-11T05:04:35.396Z,22.65
2018-03-11T05:07:02.915Z,23.97
2018-03-11T05:09:30.454Z,26.87
2018-03-11T05:11:58.738Z,22.27
2018-03-11T05:14:26.321Z,23.43
2018-03-11T05:16:53.854Z,27.27
2018-03-11T05:19:21.410Z,26.83
2018-03-11T05:21:48.975Z,27.40
2018-03-11T05:24:16.713Z,26.27
2018-03-11T05:26:44.358Z,29.25
2018-03-11T05:29:11.929Z,25.97
2018-03-11T05:31:39.487Z,28.40
2018-03-11T05:34:07.031Z,22.87
2018-03-11T05:36:34.568Z,31.43
2018-03-11T05:39:02.104Z,26.63
2018-03-11T05:41:29.750Z,27.67
2018-03-11T05:43:58.442Z,33.77
2018-03-11T05:46:25.969Z,33.80
2018-03-11T05:48:53.535Z,34.07
2018-03-11T05:51:21.078Z,35.07
2018-03-11T05:53:48.589Z,34.00
2018-03-11T05:56:20.339Z,32.60
2018-03-11T05:58:51.426Z,36.57
2018-03-11T06:01:19.407Z,34.30
2018-03-11T06:03:47.035Z,37.47
2018-03-11T06:06:14.724Z,35.67
2018-03-11T06:08:44.262Z,36.13
2018-03-11T06:11:11.847Z,34.53
2018-03-11T06:19:26.248Z,28.90
2018-03-11T06:21:53.827Z,32.30
2018-03-11T06:24:21.814Z,27.87
2018-03-11T06:26:49.397Z,31.35
2018-03-11T06:29:17.020Z,32.80
2018-03-11T06:31:45.003Z,28.30
2018-03-11T06:34:12.598Z,27.90
2018-03-11T06:36:40.160Z,27.47
2018-03-11T06:39:07.772Z,34.55
2018-03-11T06:41:35.723Z,27.50
2018-03-11T06:44:03.303Z,27.67
2018-03-11T06:46:31.269Z,26.35
2018-03-11T06:48:59.259Z,27.20
2018-03-11T06:51:26.879Z,29.37
2018-03-11T06:53:54.436Z,27.00
2018-03-11T06:56:22.019Z,26.23
2018-03-11T06:58:49.615Z,26.00
2018-03-11T07:01:17.130Z,27.13
2018-03-11T07:03:46.070Z,24.55
2018-03-11T07:06:13.623Z,22.17
2018-03-11T07:08:41.230Z,21.60
2018-03-11T07:11:08.769Z,24.27
2018-03-11T07:13:36.348Z,22.80
2018-03-11T07:16:03.902Z,21.65
2018-03-11T07:18:31.508Z,22.00
2018-03-11T07:21:00.952Z,20.33
2018-03-11T07:23:28.459Z,18.07
2018-03-11T07:25:56.010Z,18.30
2018-03-11T07:28:24.549Z,20.40
2018-03-11T07:30:52.174Z,21.77
2018-03-11T07:33:19.814Z,17.70
2018-03-11T07:35:47.384Z,19.03
2018-03-11T07:38:15.327Z,22.40
2018-03-11T07:40:42.918Z,22.17
2018-03-11T07:43:10.511Z,22.77
2018-03-11T07:45:38.208Z,18.63
2018-03-11T07:48:05.756Z,17.20
2018-03-11T07:50:33.339Z,17.90
2018-03-11T07:53:01.359Z,20.37
2018-03-11T07:55:28.963Z,18.93
2018-03-11T07:57:56.513Z,15.13
2018-03-11T08:00:24.058Z,17.70
2018-03-11T08:02:51.680Z,20.50
2018-03-11T08:05:19.778Z,15.83
2018-03-11T08:07:48.988Z,16.50
2018-03-11T08:10:16.589Z,14.93
2018-03-11T08:12:44.735Z,16.07
2018-03-11T08:15:12.287Z,15.10
2018-03-11T08:17:39.860Z,17.33
2018-03-11T08:20:07.520Z,16.50
2018-03-11T08:22:35.132Z,14.05
2018-03-11T08:25:02.719Z,15.77
2018-03-11T08:27:30.278Z,15.60
2018-03-11T08:29:57.858Z,17.40
2018-03-11T08:32:25.413Z,18.50
2018-03-11T08:34:53.072Z,17.83
2018-03-11T08:37:20.633Z,18.70
2018-03-11T08:39:50.400Z,15.55
2018-03-11T08:42:17.961Z,18.23
2018-03-11T08:44:45.557Z,17.17
2018-03-11T08:47:13.135Z,15.93
2018-03-11T08:49:40.694Z,12.40
2018-03-11T08:52:11.920Z,15.97
2018-03-11T08:54:39.523Z,14.18
2018-03-11T08:57:07.560Z,15.33
2018-03-11T08:59:35.187Z,14.43
2018-03-11T09:02:02.815Z,13.90
2018-03-11T09:04:30.847Z,13.55
2018-03-11T09:06:58.436Z,16.37
2018-03-11T09:09:26.011Z,14.10
2018-03-11T09:11:53.616Z,13.70
2018-03-11T09:14:21.163Z,10.13
2018-03-11T09:16:48.809Z,10.93
2018-03-11T09:19:16.373Z,12.80
2018-03-11T09:21:43.962Z,11.73
2018-03-11T09:24:11.514Z,10.90
2018-03-11T09:26:39.171Z,11.80
2018-03-11T09:29:07.161Z,14.00
2018-03-11T09:31:34.703Z,12.93
2018-03-11T09:34:02.287Z,12.23
2018-03-11T09:36:32.668Z,12.70
2018-03-11T09:39:00.194Z,11.73
2018-03-11T09:41:28.175Z,13.38
2018-03-11T09:43:55.731Z,13.40
2018-03-11T09:46:23.709Z,15.90
2018-03-11T09:48:51.218Z,11.87
2018-03-11T09:51:18.822Z,11.70
2018-03-11T09:53:46.388Z,14.07
2018-03-11T09:56:14.324Z,11.33
2018-03-11T09:58:41.890Z,12.43
2018-03-11T10:01:09.430Z,12.10
2018-03-11T10:03:36.990Z,14.00
2018-03-11T10:06:04.534Z,10.23
2018-03-11T10:08:32.123Z,13.70
2018-03-11T10:10:59.701Z,12.20
2018-03-11T10:13:29.365Z,11.60
2018-03-11T10:16:00.186Z,11.80
2018-03-11T10:18:27.754Z,11.05
2018-03-11T10:20:55.330Z,14.27
2018-03-11T10:23:22.895Z,11.50
2018-03-11T10:25:50.454Z,10.40
2018-03-11T10:28:18.454Z,11.30
2018-03-11T10:30:46.404Z,10.17
2018-03-11T10:33:13.957Z,11.07
2018-03-11T10:35:41.534Z,10.70
2018-03-11T10:38:09.617Z,13.00
2018-03-11T10:40:37.566Z,11.30
2018-03-11T10:43:05.173Z,12.53
2018-03-11T10:45:32.733Z,11.40
2018-03-11T10:48:00.280Z,11.57
2018-03-11T10:50:27.858Z,12.00
2018-03-11T10:52:55.419Z,12.37
2018-03-11T10:55:22.972Z,10.83
2018-03-11T10:57:50.575Z,10.70
2018-03-11T11:00:18.126Z,12.17
2018-03-11T11:02:45.683Z,10.73
2018-03-11T11:05:13.249Z,10.70
2018-03-11T11:07:40.802Z,9.97
2018-03-11T11:10:08.373Z,11.43
2018-03-11T11:12:39.127Z,11.43
2018-03-11T11:15:08.985Z,10.40
2018-03-11T11:17:36.600Z,10.47
2018-03-11T11:20:04.210Z,12.00
2018-03-11T11:22:31.904Z,10.35
2018-03-11T11:24:59.461Z,8.30
2018-03-11T11:27:27.010Z,9.47
2018-03-11T11:29:56.632Z,10.13
2018-03-11T11:32:24.191Z,8.30
2018-03-11T11:34:51.764Z,5.83
2018-03-11T11:37:19.361Z,6.97
2018-03-11T11:39:46.916Z,8.00
2018-03-11T11:42:14.528Z,5.80
2018-03-11T11:44:42.094Z,5.67
2018-03-11T11:47:09.652Z,6.97
2018-03-11T11:49:37.221Z,6.63
2018-03-11T11:52:06.141Z,7.55
2018-03-11T11:54:33.721Z,7.37
2018-03-11T11:57:03.397Z,6.90
2018-03-11T11:59:35.096Z,6.83
2018-03-11T12:02:02.674Z,7.30
2018-03-11T12:04:30.275Z,8.45
2018-03-11T12:06:58.269Z,6.93
2018-03-11T12:09:25.866Z,9.30
2018-03-11T12:11:53.486Z,4.97
2018-03-11T12:14:21.061Z,6.07
2018-03-11T12:16:48.603Z,6.93
2018-03-11T12:21:50.685Z,6.60
2018-03-11T12:24:18.683Z,6.00
2018-03-11T12:26:46.200Z,5.83
2018-03-11T12:29:14.285Z,6.80
2018-03-11T12:31:41.874Z,6.20
2018-03-11T12:34:10.114Z,6.33
2018-03-11T12:36:37.818Z,5.68
2018-03-11T12:39:09.173Z,8.30
2018-03-11T12:41:36.738Z,6.10
2018-03-11T12:44:04.304Z,5.60
2018-03-11T12:46:31.900Z,5.60
2018-03-11T12:48:59.844Z,4.90
2018-03-11T12:51:27.573Z,6.20
2018-03-11T12:53:56.199Z,5.35
2018-03-11T12:56:23.826Z,5.00
2018-03-11T12:58:51.390Z,8.10
2018-03-11T13:01:19.002Z,5.10
2018-03-11T13:03:46.594Z,5.87
2018-03-11T13:06:15.033Z,5.53
2018-03-11T13:08:43.166Z,7.43
2018-03-11T13:11:10.730Z,5.12
2018-03-11T13:13:38.736Z,5.85
2018-03-11T13:16:06.325Z,5.60
2018-03-11T13:18:37.058Z,5.50
2018-03-11T13:21:10.457Z,5.63
2018-03-11T13:23:38.026Z,5.00
2018-03-11T13:26:05.586Z,5.70
2018-03-11T13:28:44.816Z,5.40
2018-03-11T13:31:12.403Z,5.67
2018-03-11T13:33:51.750Z,5.67
2018-03-11T13:36:19.349Z,5.97
2018-03-11T13:38:58.534Z,6.10
2018-03-11T13:41:27.062Z,6.13
2018-03-11T13:43:54.646Z,5.30
2018-03-11T13:46:33.953Z,3.43
2018-03-11T13:49:01.897Z,4.00
2018-03-11T13:51:41.455Z,4.80
2018-03-11T13:54:09.393Z,4.83
2018-03-11T13:56:38.897Z,4.33
2018-03-11T13:59:06.481Z,4.90
2018-03-11T14:01:34.439Z,5.70
2018-03-11T14:04:01.965Z,4.77
2018-03-11T14:06:29.546Z,3.33
2018-03-11T14:08:57.168Z,2.33
2018-03-11T14:11:24.730Z,3.23
2018-03-11T14:13:52.318Z,3.50
2018-03-11T14:16:19.875Z,3.37
2018-03-11T14:18:52.156Z,2.80
2018-03-11T14:21:19.784Z,3.22
2018-03-11T14:23:49.314Z,4.67
2018-03-11T14:26:16.892Z,2.40
2018-03-11T14:28:46.403Z,2.30
2018-03-11T14:31:13.934Z,2.93
2018-03-11T14:33:41.498Z,2.53
2018-03-11T14:36:09.086Z,2.47
2018-03-11T14:38:51.888Z,2.52
2018-03-11T14:41:19.544Z,2.27
2018-03-11T14:43:47.212Z,7.63
2018-03-11T14:46:14.785Z,3.50
2018-03-11T14:48:42.359Z,1.70
2018-03-11T14:51:10.738Z,2.03
2018-03-11T14:53:38.306Z,1.97
2018-03-11T14:56:06.400Z,1.40
2018-03-11T14:58:33.963Z,1.20
2018-03-11T15:01:04.870Z,1.20
2018-03-11T15:03:32.810Z,1.50
2018-03-11T15:06:00.382Z,2.73
2018-03-11T15:08:27.930Z,1.50
2018-03-11T15:10:55.514Z,1.27
2018-03-11T15:13:23.490Z,2.00
2018-03-11T15:15:53.283Z,1.40
2018-03-11T15:18:21.766Z,1.40
2018-03-11T15:20:49.742Z,1.07
2018-03-11T15:23:17.257Z,1.10
2018-03-11T15:25:44.824Z,1.40
2018-03-11T15:28:12.397Z,1.30
2018-03-11T15:30:39.942Z,2.13
2018-03-11T15:33:07.479Z,1.00
2018-03-11T15:35:35.086Z,1.60
2018-03-11T15:38:02.840Z,1.20
2018-03-11T15:40:31.346Z,2.70
2018-03-11T15:42:58.924Z,2.03
2018-03-11T15:45:28.274Z,1.10
2018-03-11T15:47:55.835Z,4.50
2018-03-11T15:50:23.426Z,1.97
2018-03-11T15:52:51.436Z,1.87
2018-03-11T15:55:19.059Z,1.30
2018-03-11T15:57:46.640Z,1.50
2018-03-11T16:00:14.594Z,1.63
2018-03-11T16:02:42.538Z,1.37
2018-03-11T16:05:10.160Z,1.10
2018-03-11T16:07:37.729Z,1.63
2018-03-11T16:10:05.266Z,1.70
2018-03-11T16:12:32.883Z,1.50
2018-03-11T16:15:00.442Z,1.80
2018-03-11T16:17:28.051Z,2.00
2018-03-11T16:19:55.594Z,1.57
2018-03-11T16:22:23.201Z,2.20
2018-03-11T16:24:50.795Z,1.58
2018-03-11T16:27:18.382Z,2.03
2018-03-11T16:29:46.935Z,1.77
2018-03-11T16:32:15.393Z,2.50
2018-03-11T16:34:43.174Z,2.10
2018-03-11T16:37:10.729Z,2.30
2018-03-11T16:39:38.312Z,1.83
2018-03-11T16:42:06.276Z,2.03
2018-03-11T16:44:33.930Z,2.00
2018-03-11T16:47:02.107Z,2.53
2018-03-11T16:49:30.750Z,1.60
2018-03-11T16:51:58.318Z,2.13
2018-03-11T16:54:25.861Z,5.87
2018-03-11T16:56:53.505Z,6.43
2018-03-11T16:59:21.038Z,5.20
2018-03-11T17:01:48.986Z,4.77
2018-03-11T17:04:16.547Z,4.23
2018-03-11T17:06:44.166Z,5.00
2018-03-11T17:09:11.815Z,4.17
2018-03-11T17:11:39.343Z,5.87
2018-03-11T17:14:07.340Z,7.93
2018-03-11T17:16:34.897Z,8.97
2018-03-11T17:19:02.861Z,4.30
2018-03-11T17:21:30.442Z,4.20
2018-03-11T17:23:58.013Z,4.23
2018-03-11T17:26:25.762Z,3.95
2018-03-11T17:28:53.363Z,4.40
2018-03-11T17:31:24.630Z,4.97
2018-03-11T17:33:52.161Z,5.80
2018-03-11T17:36:19.765Z,6.25
2018-03-11T17:38:47.703Z,5.57
2018-03-11T17:41:15.287Z,6.20
2018-03-11T17:43:43.707Z,5.17
2018-03-11T17:46:11.196Z,5.97
2018-03-11T17:48:38.751Z,5.68
2018-03-11T17:51:09.552Z,5.80
2018-03-11T17:53:37.101Z,7.27
2018-03-11T17:56:04.672Z,8.50
2018-03-11T17:58:32.218Z,6.25
2018-03-11T18:00:59.763Z,7.27
2018-03-11T18:03:27.726Z,5.00
2018-03-11T18:05:55.749Z,6.20
2018-03-11T18:08:23.301Z,6.37
2018-03-11T18:10:50.882Z,7.30
2018-03-11T18:13:18.444Z,7.43
2018-03-11T18:15:46.778Z,6.53
2018-03-11T18:18:14.386Z,6.50
2018-03-11T18:20:41.943Z,6.10
2018-03-11T18:23:10.368Z,8.50
2018-03-11T18:25:37.929Z,11.40
2018-03-11T18:28:05.508Z,9.50
2018-03-11T18:30:33.066Z,8.43
2018-03-11T18:33:00.630Z,7.33
2018-03-11T18:35:28.266Z,7.57
2018-03-11T18:37:56.543Z,10.68
2018-03-11T18:40:24.387Z,8.70
2018-03-11T18:42:52.324Z,7.50
2018-03-11T18:45:19.862Z,7.73
2018-03-11T18:47:48.059Z,8.17
2018-03-11T18:50:15.656Z,8.13
2018-03-11T18:52:43.632Z,8.67
2018-03-11T18:55:11.659Z,8.13
2018-03-11T18:57:40.602Z,9.20
2018-03-11T19:00:08.196Z,8.43
2018-03-11T19:02:35.782Z,9.02
2018-03-11T19:05:08.108Z,10.33
2018-03-11T19:07:36.694Z,12.67
2018-03-11T19:10:04.272Z,14.63
2018-03-11T19:12:31.846Z,17.20
2018-03-11T19:14:59.417Z,13.13
2018-03-11T19:17:26.993Z,13.65
2018-03-11T19:19:54.994Z,14.10
2018-03-11T19:22:23.046Z,14.10
2018-03-11T19:24:50.609Z,14.37
2018-03-11T19:27:18.589Z,11.53
2018-03-11T19:29:46.738Z,12.85
2018-03-11T19:32:14.703Z,17.33
2018-03-11T19:34:42.276Z,10.83
2018-03-11T19:37:10.264Z,19.60
2018-03-11T19:39:38.201Z,11.90
2018-03-11T19:42:06.649Z,13.80
2018-03-11T19:44:34.240Z,14.13
2018-03-11T19:47:01.809Z,11.50
2018-03-11T19:49:29.794Z,13.80
2018-03-11T19:51:59.870Z,13.17
2018-03-11T19:54:27.401Z,16.63
2018-03-11T19:56:55.048Z,15.53
2018-03-11T19:59:22.583Z,13.30
2018-03-11T20:01:51.796Z,15.43
2018-03-11T20:04:21.270Z,13.77
2018-03-11T20:06:48.839Z,15.20
2018-03-11T20:09:16.408Z,39.57
2018-03-11T20:11:44.370Z,53.07
2018-03-11T20:14:11.934Z,56.03
2018-03-11T20:16:41.626Z,52.30
2018-03-11T20:19:10.850Z,38.40
2018-03-11T20:21:38.817Z,30.73
2018-03-11T20:24:06.814Z,25.95
2018-03-11T20:26:34.381Z,17.30
2018-03-11T20:29:01.965Z,14.97
2018-03-11T20:31:29.561Z,17.93
2018-03-11T20:33:57.497Z,20.35
2018-03-11T20:36:25.089Z,19.93
2018-03-11T20:38:52.841Z,16.60
2018-03-11T20:41:20.408Z,16.67
2018-03-11T20:43:48.378Z,19.73
2018-03-11T20:46:15.930Z,21.60
2018-03-11T20:48:44.347Z,73.93
2018-03-11T20:51:11.921Z,41.70
2018-03-11T20:53:39.536Z,72.57
2018-03-11T20:56:07.518Z,50.70
2018-03-11T20:58:35.469Z,42.53
2018-03-11T21:01:03.018Z,41.80
2018-03-11T21:03:30.813Z,34.17
2018-03-11T21:06:02.152Z,36.03
2018-03-11T21:08:29.722Z,25.90
2018-03-11T21:10:57.446Z,27.37
2018-03-11T21:13:25.382Z,25.63
2018-03-11T21:15:53.007Z,28.23
2018-03-11T21:18:20.966Z,24.73
2018-03-11T21:20:48.547Z,22.90
2018-03-11T21:23:16.456Z,22.27
2018-03-11T21:25:44.023Z,17.43
2018-03-11T21:28:11.577Z,18.23
2018-03-11T21:30:39.152Z,18.40
2018-03-11T21:33:06.695Z,20.12
2018-03-11T21:35:34.399Z,21.03
2018-03-11T21:38:01.947Z,28.73
2018-03-11T21:40:29.607Z,30.63
2018-03-11T21:42:57.144Z,31.73
2018-03-11T21:45:24.750Z,27.85
2018-03-11T21:47:52.798Z,35.22
2018-03-11T21:50:20.370Z,28.27
2018-03-11T21:52:48.363Z,23.00
2018-03-11T21:55:16.318Z,22.43
2018-03-11T21:57:44.267Z,21.00
2018-03-11T22:00:11.818Z,19.95
2018-03-11T22:02:39.383Z,19.63
2018-03-11T22:05:08.618Z,20.00
2018-03-11T22:07:36.209Z,22.03
2018-03-11T22:10:03.757Z,18.02
2018-03-11T22:12:34.388Z,19.43
2018-03-11T22:15:02.146Z,20.73
2018-03-11T22:17:29.700Z,19.12
2018-03-11T22:19:57.240Z,18.50
2018-03-11T22:22:24.803Z,18.33
2018-03-11T22:24:52.394Z,19.77
2018-03-11T22:27:20.033Z,20.43
2018-03-11T22:29:48.237Z,20.63
2018-03-11T22:32:15.842Z,19.40
2018-03-11T22:34:43.445Z,19.80
2018-03-11T22:37:11.445Z,19.10
2018-03-11T22:39:39.040Z,21.40
2018-03-11T22:42:06.604Z,18.05
2018-03-11T22:44:35.212Z,21.08
2018-03-11T22:47:02.746Z,19.10
2018-03-11T22:49:32.202Z,22.85
2018-03-11T22:51:59.854Z,20.20
2018-03-11T22:54:34.327Z,19.30
2018-03-11T22:57:06.295Z,20.30
2018-03-11T22:59:34.232Z,20.97
2018-03-11T23:02:01.781Z,24.50
2018-03-11T23:04:29.336Z,20.57
2018-03-11T23:06:58.666Z,19.17
2018-03-11T23:09:26.248Z,20.50
2018-03-11T23:11:53.830Z,19.50
2018-03-11T23:14:21.362Z,21.70
2018-03-11T23:16:51.035Z,20.95
2018-03-11T23:19:22.421Z,22.00
2018-03-11T23:21:50.360Z,25.60
2018-03-11T23:24:17.964Z,18.97
2018-03-11T23:26:46.098Z,22.40
2018-03-11T23:29:13.651Z,21.10
2018-03-11T23:31:41.227Z,22.47
2018-03-11T23:34:08.794Z,23.80
2018-03-11T23:36:36.339Z,23.07
2018-03-11T23:39:03.918Z,22.07
2018-03-11T23:41:31.509Z,23.17
2018-03-11T23:44:03.729Z,29.43
2018-03-11T23:46:31.772Z,21.98
2018-03-11T23:48:59.314Z,21.67
2018-03-11T23:51:27.041Z,27.83
2018-03-11T23:53:54.663Z,26.40
2018-03-11T23:56:22.218Z,29.27
2018-03-11T23:58:49.828Z,27.10
